sensor_id;sensor_type;location;lat;lon;timestamp;P1;durP1;ratioP1;P2;durP2;ratioP2
51292;SDS011;37377;45.186;9.778;2023-04-30T00:00:04;32.38;;;23.80;;
51292;SDS011;37377;45.186;9.778;2023-04-30T00:02:36;32.33;;;23.38;;
51292;SDS011;37377;45.186;9.778;2023-04-30T00:05:11;27.02;;;22.48;;
51292;SDS011;37377;45.186;9.778;2023-04-30T00:07:57;32.70;;;23.75;;
51292;SDS011;37377;45.186;9.778;2023-04-30T00:10:31;30.20;;;24.65;;
51292;SDS011;37377;45.186;9.778;2023-04-30T00:15:07;31.70;;;24.73;;
51292;SDS011;37377;45.186;9.778;2023-04-30T00:17:40;32.97;;;24.77;;
51292;SDS011;37377;45.186;9.778;2023-04-30T00:20:16;31.33;;;26.15;;
51292;SDS011;37377;45.186;9.778;2023-04-30T00:22:43;33.30;;;25.20;;
51292;SDS011;37377;45.186;9.778;2023-04-30T00:28:05;29.50;;;25.45;;
51292;SDS011;37377;45.186;9.778;2023-04-30T00:30:33;36.05;;;25.67;;
51292;SDS011;37377;45.186;9.778;2023-04-30T00:33:05;33.13;;;25.35;;
51292;SDS011;37377;45.186;9.778;2023-04-30T00:35:35;32.00;;;26.42;;
51292;SDS011;37377;45.186;9.778;2023-04-30T00:38:09;35.78;;;25.98;;
51292;SDS011;37377;45.186;9.778;2023-04-30T00:40:37;34.45;;;26.75;;
51292;SDS011;37377;45.186;9.778;2023-04-30T00:43:08;32.10;;;26.95;;
51292;SDS011;37377;45.186;9.778;2023-04-30T00:45:53;38.40;;;28.77;;
51292;SDS011;37377;45.186;9.778;2023-04-30T00:48:26;32.22;;;26.85;;
51292;SDS011;37377;45.186;9.778;2023-04-30T00:51:02;32.45;;;27.52;;
51292;SDS011;37377;45.186;9.778;2023-04-30T00:53:30;38.70;;;27.63;;
51292;SDS011;37377;45.186;9.778;2023-04-30T00:56:03;36.22;;;29.70;;
51292;SDS011;37377;45.186;9.778;2023-04-30T00:58:32;41.03;;;29.40;;
51292;SDS011;37377;45.186;9.778;2023-04-30T01:01:04;34.75;;;29.08;;
51292;SDS011;37377;45.186;9.778;2023-04-30T01:03:41;38.03;;;31.50;;
51292;SDS011;37377;45.186;9.778;2023-04-30T01:06:12;40.78;;;29.90;;
51292;SDS011;37377;45.186;9.778;2023-04-30T01:08:41;31.70;;;28.30;;
51292;SDS011;37377;45.186;9.778;2023-04-30T01:16:59;43.13;;;31.52;;
51292;SDS011;37377;45.186;9.778;2023-04-30T01:21:59;39.03;;;32.53;;
51292;SDS011;37377;45.186;9.778;2023-04-30T01:24:41;43.00;;;31.90;;
51292;SDS011;37377;45.186;9.778;2023-04-30T01:30:09;39.53;;;31.95;;
51292;SDS011;37377;45.186;9.778;2023-04-30T01:32:45;40.05;;;31.77;;
51292;SDS011;37377;45.186;9.778;2023-04-30T01:35:15;44.30;;;33.08;;
51292;SDS011;37377;45.186;9.778;2023-04-30T01:43:19;38.63;;;32.42;;
51292;SDS011;37377;45.186;9.778;2023-04-30T01:46:11;39.83;;;31.83;;
51292;SDS011;37377;45.186;9.778;2023-04-30T01:51:42;47.55;;;35.85;;
51292;SDS011;37377;45.186;9.778;2023-04-30T01:54:29;38.78;;;32.65;;
51292;SDS011;37377;45.186;9.778;2023-04-30T01:57:11;41.42;;;34.63;;
51292;SDS011;37377;45.186;9.778;2023-04-30T01:59:44;41.83;;;34.38;;
51292;SDS011;37377;45.186;9.778;2023-04-30T02:02:24;44.15;;;35.38;;
51292;SDS011;37377;45.186;9.778;2023-04-30T02:04:56;46.63;;;36.28;;
51292;SDS011;37377;45.186;9.778;2023-04-30T02:07:38;46.60;;;38.00;;
51292;SDS011;37377;45.186;9.778;2023-04-30T02:10:06;47.35;;;36.38;;
51292;SDS011;37377;45.186;9.778;2023-04-30T02:12:40;48.75;;;37.08;;
51292;SDS011;37377;45.186;9.778;2023-04-30T02:15:10;45.05;;;38.58;;
51292;SDS011;37377;45.186;9.778;2023-04-30T02:17:40;49.95;;;38.72;;
51292;SDS011;37377;45.186;9.778;2023-04-30T02:20:10;51.13;;;39.58;;
51292;SDS011;37377;45.186;9.778;2023-04-30T02:22:43;50.08;;;39.83;;
51292;SDS011;37377;45.186;9.778;2023-04-30T02:25:16;50.00;;;40.28;;
51292;SDS011;37377;45.186;9.778;2023-04-30T02:27:46;52.83;;;42.65;;
51292;SDS011;37377;45.186;9.778;2023-04-30T02:30:23;48.92;;;41.22;;
51292;SDS011;37377;45.186;9.778;2023-04-30T02:32:59;45.78;;;40.83;;
51292;SDS011;37377;45.186;9.778;2023-04-30T02:35:36;51.38;;;41.20;;
51292;SDS011;37377;45.186;9.778;2023-04-30T02:38:09;50.75;;;41.95;;
51292;SDS011;37377;45.186;9.778;2023-04-30T02:40:49;58.20;;;42.70;;
51292;SDS011;37377;45.186;9.778;2023-04-30T02:43:19;51.83;;;43.70;;
51292;SDS011;37377;45.186;9.778;2023-04-30T02:45:52;59.22;;;46.83;;
51292;SDS011;37377;45.186;9.778;2023-04-30T02:48:24;57.83;;;46.78;;
51292;SDS011;37377;45.186;9.778;2023-04-30T02:50:55;54.47;;;46.38;;
51292;SDS011;37377;45.186;9.778;2023-04-30T02:53:28;64.00;;;48.20;;
51292;SDS011;37377;45.186;9.778;2023-04-30T02:56:03;65.65;;;50.83;;
51292;SDS011;37377;45.186;9.778;2023-04-30T02:58:34;66.45;;;51.85;;
51292;SDS011;37377;45.186;9.778;2023-04-30T03:01:04;70.10;;;53.92;;
51292;SDS011;37377;45.186;9.778;2023-04-30T03:03:37;66.20;;;53.80;;
51292;SDS011;37377;45.186;9.778;2023-04-30T03:06:08;73.45;;;55.90;;
51292;SDS011;37377;45.186;9.778;2023-04-30T03:08:38;73.30;;;54.17;;
51292;SDS011;37377;45.186;9.778;2023-04-30T03:11:07;65.25;;;55.38;;
51292;SDS011;37377;45.186;9.778;2023-04-30T03:13:36;66.95;;;54.45;;
51292;SDS011;37377;45.186;9.778;2023-04-30T03:16:06;70.47;;;55.55;;
51292;SDS011;37377;45.186;9.778;2023-04-30T03:18:45;68.70;;;54.55;;
51292;SDS011;37377;45.186;9.778;2023-04-30T03:21:28;69.50;;;53.00;;
51292;SDS011;37377;45.186;9.778;2023-04-30T03:24:03;70.90;;;52.58;;
51292;SDS011;37377;45.186;9.778;2023-04-30T03:26:36;69.00;;;54.10;;
51292;SDS011;37377;45.186;9.778;2023-04-30T03:29:11;70.60;;;54.47;;
51292;SDS011;37377;45.186;9.778;2023-04-30T03:31:41;67.20;;;51.80;;
51292;SDS011;37377;45.186;9.778;2023-04-30T03:34:14;69.90;;;51.85;;
51292;SDS011;37377;45.186;9.778;2023-04-30T03:36:46;69.25;;;50.47;;
51292;SDS011;37377;45.186;9.778;2023-04-30T03:39:21;70.28;;;54.25;;
51292;SDS011;37377;45.186;9.778;2023-04-30T03:41:53;64.93;;;54.47;;
51292;SDS011;37377;45.186;9.778;2023-04-30T03:44:20;69.55;;;53.05;;
51292;SDS011;37377;45.186;9.778;2023-04-30T03:46:47;71.22;;;54.00;;
51292;SDS011;37377;45.186;9.778;2023-04-30T03:49:16;67.60;;;55.78;;
51292;SDS011;37377;45.186;9.778;2023-04-30T03:51:50;73.22;;;58.85;;
51292;SDS011;37377;45.186;9.778;2023-04-30T03:54:19;71.45;;;55.75;;
51292;SDS011;37377;45.186;9.778;2023-04-30T03:56:49;65.43;;;56.70;;
51292;SDS011;37377;45.186;9.778;2023-04-30T03:59:18;67.25;;;56.22;;
51292;SDS011;37377;45.186;9.778;2023-04-30T04:01:51;70.38;;;54.50;;
51292;SDS011;37377;45.186;9.778;2023-04-30T04:04:29;68.00;;;54.10;;
51292;SDS011;37377;45.186;9.778;2023-04-30T04:07:03;71.88;;;55.33;;
51292;SDS011;37377;45.186;9.778;2023-04-30T04:09:38;68.30;;;52.30;;
51292;SDS011;37377;45.186;9.778;2023-04-30T04:12:13;63.85;;;50.72;;
51292;SDS011;37377;45.186;9.778;2023-04-30T04:14:43;60.78;;;49.58;;
51292;SDS011;37377;45.186;9.778;2023-04-30T04:17:18;64.20;;;50.70;;
51292;SDS011;37377;45.186;9.778;2023-04-30T04:19:52;62.85;;;51.08;;
51292;SDS011;37377;45.186;9.778;2023-04-30T04:22:26;60.80;;;50.70;;
51292;SDS011;37377;45.186;9.778;2023-04-30T04:24:54;60.67;;;51.63;;
51292;SDS011;37377;45.186;9.778;2023-04-30T04:27:23;64.93;;;52.13;;
51292;SDS011;37377;45.186;9.778;2023-04-30T04:29:56;65.32;;;50.33;;
51292;SDS011;37377;45.186;9.778;2023-04-30T04:32:26;59.17;;;50.20;;
51292;SDS011;37377;45.186;9.778;2023-04-30T04:34:56;60.65;;;48.45;;
51292;SDS011;37377;45.186;9.778;2023-04-30T04:37:34;60.20;;;48.03;;
51292;SDS011;37377;45.186;9.778;2023-04-30T04:40:07;56.33;;;47.38;;
51292;SDS011;37377;45.186;9.778;2023-04-30T04:42:48;52.95;;;46.88;;
51292;SDS011;37377;45.186;9.778;2023-04-30T04:47:47;50.13;;;43.33;;
51292;SDS011;37377;45.186;9.778;2023-04-30T04:50:18;50.40;;;42.63;;
51292;SDS011;37377;45.186;9.778;2023-04-30T04:52:52;54.30;;;46.83;;
51292;SDS011;37377;45.186;9.778;2023-04-30T04:55:19;55.58;;;46.50;;
51292;SDS011;37377;45.186;9.778;2023-04-30T04:57:59;54.28;;;44.42;;
51292;SDS011;37377;45.186;9.778;2023-04-30T05:00:32;54.38;;;44.20;;
51292;SDS011;37377;45.186;9.778;2023-04-30T05:03:21;57.70;;;44.15;;
51292;SDS011;37377;45.186;9.778;2023-04-30T05:05:54;53.10;;;42.58;;
51292;SDS011;37377;45.186;9.778;2023-04-30T05:08:24;54.58;;;41.33;;
51292;SDS011;37377;45.186;9.778;2023-04-30T05:10:55;52.63;;;41.78;;
51292;SDS011;37377;45.186;9.778;2023-04-30T05:13:31;53.95;;;41.05;;
51292;SDS011;37377;45.186;9.778;2023-04-30T05:15:58;50.22;;;38.38;;
51292;SDS011;37377;45.186;9.778;2023-04-30T05:18:52;44.65;;;35.92;;
51292;SDS011;37377;45.186;9.778;2023-04-30T05:24:01;37.60;;;30.48;;
51292;SDS011;37377;45.186;9.778;2023-04-30T05:26:48;34.22;;;28.50;;
51292;SDS011;37377;45.186;9.778;2023-04-30T05:29:28;33.60;;;27.13;;
51292;SDS011;37377;45.186;9.778;2023-04-30T05:32:04;29.42;;;25.13;;
51292;SDS011;37377;45.186;9.778;2023-04-30T05:34:43;28.33;;;23.65;;
51292;SDS011;37377;45.186;9.778;2023-04-30T05:37:39;26.58;;;22.23;;
51292;SDS011;37377;45.186;9.778;2023-04-30T05:40:14;28.70;;;21.90;;
51292;SDS011;37377;45.186;9.778;2023-04-30T05:42:45;32.20;;;23.13;;
51292;SDS011;37377;45.186;9.778;2023-04-30T05:45:24;29.58;;;22.13;;
51292;SDS011;37377;45.186;9.778;2023-04-30T05:48:12;26.90;;;21.83;;
51292;SDS011;37377;45.186;9.778;2023-04-30T05:50:46;28.58;;;24.15;;
51292;SDS011;37377;45.186;9.778;2023-04-30T05:53:19;25.42;;;22.73;;
51292;SDS011;37377;45.186;9.778;2023-04-30T05:55:50;32.05;;;24.15;;
51292;SDS011;37377;45.186;9.778;2023-04-30T05:58:26;27.67;;;24.30;;
51292;SDS011;37377;45.186;9.778;2023-04-30T06:01:19;31.88;;;24.33;;
51292;SDS011;37377;45.186;9.778;2023-04-30T06:03:46;25.50;;;21.85;;
51292;SDS011;37377;45.186;9.778;2023-04-30T06:06:22;27.13;;;20.05;;
51292;SDS011;37377;45.186;9.778;2023-04-30T06:09:42;27.35;;;21.08;;
51292;SDS011;37377;45.186;9.778;2023-04-30T06:12:23;27.17;;;20.30;;
51292;SDS011;37377;45.186;9.778;2023-04-30T06:14:52;20.60;;;18.05;;
51292;SDS011;37377;45.186;9.778;2023-04-30T06:17:24;23.35;;;19.77;;
51292;SDS011;37377;45.186;9.778;2023-04-30T06:19:52;26.13;;;19.02;;
51292;SDS011;37377;45.186;9.778;2023-04-30T06:22:38;31.27;;;19.88;;
51292;SDS011;37377;45.186;9.778;2023-04-30T06:25:09;22.92;;;18.48;;
51292;SDS011;37377;45.186;9.778;2023-04-30T06:27:36;23.55;;;18.83;;
51292;SDS011;37377;45.186;9.778;2023-04-30T06:30:06;22.83;;;16.30;;
51292;SDS011;37377;45.186;9.778;2023-04-30T06:33:00;28.73;;;19.17;;
51292;SDS011;37377;45.186;9.778;2023-04-30T06:35:33;24.80;;;19.30;;
51292;SDS011;37377;45.186;9.778;2023-04-30T06:38:09;24.55;;;17.60;;
51292;SDS011;37377;45.186;9.778;2023-04-30T06:40:42;25.27;;;18.52;;
51292;SDS011;37377;45.186;9.778;2023-04-30T06:43:17;29.25;;;18.02;;
51292;SDS011;37377;45.186;9.778;2023-04-30T06:47:43;20.67;;;15.93;;
51292;SDS011;37377;45.186;9.778;2023-04-30T06:50:16;18.50;;;15.25;;
51292;SDS011;37377;45.186;9.778;2023-04-30T06:52:51;23.67;;;15.95;;
51292;SDS011;37377;45.186;9.778;2023-04-30T06:55:41;20.08;;;15.38;;
51292;SDS011;37377;45.186;9.778;2023-04-30T06:58:17;23.33;;;15.45;;
51292;SDS011;37377;45.186;9.778;2023-04-30T07:00:49;27.23;;;14.55;;
51292;SDS011;37377;45.186;9.778;2023-04-30T07:03:19;23.17;;;13.55;;
51292;SDS011;37377;45.186;9.778;2023-04-30T07:05:51;23.58;;;13.85;;
51292;SDS011;37377;45.186;9.778;2023-04-30T07:08:22;18.45;;;12.60;;
51292;SDS011;37377;45.186;9.778;2023-04-30T07:11:18;18.45;;;13.95;;
51292;SDS011;37377;45.186;9.778;2023-04-30T07:19:26;17.65;;;14.88;;
51292;SDS011;37377;45.186;9.778;2023-04-30T07:21:56;17.33;;;15.20;;
51292;SDS011;37377;45.186;9.778;2023-04-30T07:24:37;17.92;;;15.57;;
51292;SDS011;37377;45.186;9.778;2023-04-30T07:35:03;25.80;;;18.13;;
51292;SDS011;37377;45.186;9.778;2023-04-30T07:37:38;25.50;;;17.90;;
51292;SDS011;37377;45.186;9.778;2023-04-30T07:41:51;24.52;;;17.67;;
51292;SDS011;37377;45.186;9.778;2023-04-30T07:46:03;27.90;;;17.27;;
51292;SDS011;37377;45.186;9.778;2023-04-30T07:50:42;26.73;;;17.63;;
51292;SDS011;37377;45.186;9.778;2023-04-30T07:55:16;25.13;;;16.67;;
51292;SDS011;37377;45.186;9.778;2023-04-30T08:08:50;26.80;;;16.60;;
51292;SDS011;37377;45.186;9.778;2023-04-30T08:12:19;27.05;;;15.63;;
51292;SDS011;37377;45.186;9.778;2023-04-30T08:31:43;18.60;;;16.63;;
51292;SDS011;37377;45.186;9.778;2023-04-30T08:34:31;25.40;;;16.13;;
51292;SDS011;37377;45.186;9.778;2023-04-30T08:41:53;23.02;;;17.25;;
51292;SDS011;37377;45.186;9.778;2023-04-30T09:14:23;23.33;;;13.80;;
51292;SDS011;37377;45.186;9.778;2023-04-30T09:16:52;17.75;;;12.27;;
51292;SDS011;37377;45.186;9.778;2023-04-30T09:19:26;15.98;;;11.95;;
51292;SDS011;37377;45.186;9.778;2023-04-30T09:22:17;15.13;;;12.55;;
51292;SDS011;37377;45.186;9.778;2023-04-30T09:24:48;16.65;;;12.27;;
51292;SDS011;37377;45.186;9.778;2023-04-30T09:27:22;19.55;;;11.85;;
51292;SDS011;37377;45.186;9.778;2023-04-30T09:30:02;14.85;;;10.45;;
51292;SDS011;37377;45.186;9.778;2023-04-30T09:32:32;19.67;;;12.20;;
51292;SDS011;37377;45.186;9.778;2023-04-30T09:35:12;14.25;;;11.75;;
51292;SDS011;37377;45.186;9.778;2023-04-30T09:38:00;20.05;;;11.32;;
51292;SDS011;37377;45.186;9.778;2023-04-30T09:40:38;16.73;;;10.02;;
51292;SDS011;37377;45.186;9.778;2023-04-30T09:48:46;16.92;;;11.00;;
51292;SDS011;37377;45.186;9.778;2023-04-30T09:51:21;16.70;;;10.18;;
51292;SDS011;37377;45.186;9.778;2023-04-30T09:53:50;12.93;;;10.77;;
51292;SDS011;37377;45.186;9.778;2023-04-30T09:56:24;17.00;;;9.15;;
51292;SDS011;37377;45.186;9.778;2023-04-30T09:58:55;23.27;;;10.05;;
51292;SDS011;37377;45.186;9.778;2023-04-30T10:01:44;14.13;;;9.90;;
51292;SDS011;37377;45.186;9.778;2023-04-30T10:04:14;13.27;;;9.60;;
51292;SDS011;37377;45.186;9.778;2023-04-30T10:06:44;15.35;;;10.73;;
51292;SDS011;37377;45.186;9.778;2023-04-30T10:21:44;17.10;;;12.27;;
51292;SDS011;37377;45.186;9.778;2023-04-30T10:24:12;12.68;;;11.20;;
51292;SDS011;37377;45.186;9.778;2023-04-30T10:26:51;21.08;;;11.93;;
51292;SDS011;37377;45.186;9.778;2023-04-30T10:29:37;15.40;;;12.07;;
51292;SDS011;37377;45.186;9.778;2023-04-30T11:04:26;14.57;;;11.45;;
51292;SDS011;37377;45.186;9.778;2023-04-30T11:07:06;23.83;;;12.38;;
51292;SDS011;37377;45.186;9.778;2023-04-30T11:09:40;20.25;;;9.73;;
51292;SDS011;37377;45.186;9.778;2023-04-30T11:12:28;14.65;;;9.43;;
51292;SDS011;37377;45.186;9.778;2023-04-30T11:15:05;15.33;;;10.30;;
51292;SDS011;37377;45.186;9.778;2023-04-30T11:17:33;14.57;;;11.02;;
51292;SDS011;37377;45.186;9.778;2023-04-30T11:20:02;12.30;;;11.05;;
51292;SDS011;37377;45.186;9.778;2023-04-30T11:23:06;12.05;;;9.57;;
51292;SDS011;37377;45.186;9.778;2023-04-30T11:25:56;13.32;;;10.20;;
51292;SDS011;37377;45.186;9.778;2023-04-30T11:28:32;12.60;;;10.02;;
51292;SDS011;37377;45.186;9.778;2023-04-30T11:31:04;15.00;;;9.00;;
51292;SDS011;37377;45.186;9.778;2023-04-30T11:33:39;10.23;;;9.05;;
51292;SDS011;37377;45.186;9.778;2023-04-30T11:36:11;9.35;;;8.27;;
51292;SDS011;37377;45.186;9.778;2023-04-30T11:38:48;12.18;;;8.23;;
51292;SDS011;37377;45.186;9.778;2023-04-30T11:42:39;9.88;;;8.18;;
51292;SDS011;37377;45.186;9.778;2023-04-30T11:45:19;13.20;;;7.97;;
51292;SDS011;37377;45.186;9.778;2023-04-30T11:50:50;13.85;;;8.85;;
51292;SDS011;37377;45.186;9.778;2023-04-30T11:54:10;14.15;;;9.43;;
51292;SDS011;37377;45.186;9.778;2023-04-30T11:56:49;15.38;;;10.35;;
51292;SDS011;37377;45.186;9.778;2023-04-30T11:59:21;18.25;;;9.38;;
51292;SDS011;37377;45.186;9.778;2023-04-30T12:04:30;12.07;;;8.95;;
51292;SDS011;37377;45.186;9.778;2023-04-30T12:11:50;16.02;;;9.40;;
51292;SDS011;37377;45.186;9.778;2023-04-30T12:14:27;15.20;;;10.63;;
51292;SDS011;37377;45.186;9.778;2023-04-30T12:20:08;13.15;;;10.00;;
51292;SDS011;37377;45.186;9.778;2023-04-30T12:22:44;16.13;;;9.00;;
51292;SDS011;37377;45.186;9.778;2023-04-30T12:26:21;15.90;;;9.27;;
51292;SDS011;37377;45.186;9.778;2023-04-30T12:28:50;14.68;;;10.45;;
51292;SDS011;37377;45.186;9.778;2023-04-30T12:31:40;9.75;;;8.60;;
51292;SDS011;37377;45.186;9.778;2023-04-30T12:38:23;12.57;;;9.70;;
51292;SDS011;37377;45.186;9.778;2023-04-30T12:41:44;12.50;;;9.30;;
51292;SDS011;37377;45.186;9.778;2023-04-30T12:44:22;16.45;;;9.15;;
51292;SDS011;37377;45.186;9.778;2023-04-30T12:47:27;14.48;;;9.80;;
51292;SDS011;37377;45.186;9.778;2023-04-30T12:50:23;11.13;;;8.88;;
51292;SDS011;37377;45.186;9.778;2023-04-30T12:53:01;11.85;;;8.10;;
51292;SDS011;37377;45.186;9.778;2023-04-30T12:55:33;13.43;;;8.70;;
51292;SDS011;37377;45.186;9.778;2023-04-30T12:58:29;14.82;;;8.57;;
51292;SDS011;37377;45.186;9.778;2023-04-30T13:01:11;11.98;;;8.00;;
51292;SDS011;37377;45.186;9.778;2023-04-30T13:04:03;11.95;;;8.30;;
51292;SDS011;37377;45.186;9.778;2023-04-30T13:06:43;9.90;;;8.35;;
51292;SDS011;37377;45.186;9.778;2023-04-30T13:09:48;11.77;;;7.72;;
51292;SDS011;37377;45.186;9.778;2023-04-30T13:13:53;12.40;;;8.27;;
51292;SDS011;37377;45.186;9.778;2023-04-30T13:27:30;13.95;;;7.60;;
51292;SDS011;37377;45.186;9.778;2023-04-30T13:30:28;13.18;;;8.07;;
51292;SDS011;37377;45.186;9.778;2023-04-30T13:34:41;13.85;;;8.35;;
51292;SDS011;37377;45.186;9.778;2023-04-30T13:37:23;11.15;;;7.68;;
51292;SDS011;37377;45.186;9.778;2023-04-30T13:39:54;11.93;;;8.00;;
51292;SDS011;37377;45.186;9.778;2023-04-30T13:42:25;11.55;;;7.68;;
51292;SDS011;37377;45.186;9.778;2023-04-30T13:45:04;11.20;;;6.90;;
51292;SDS011;37377;45.186;9.778;2023-04-30T13:47:38;9.98;;;6.60;;
51292;SDS011;37377;45.186;9.778;2023-04-30T13:50:06;10.48;;;7.15;;
51292;SDS011;37377;45.186;9.778;2023-04-30T13:52:37;12.82;;;7.57;;
51292;SDS011;37377;45.186;9.778;2023-04-30T13:57:49;12.15;;;7.57;;
51292;SDS011;37377;45.186;9.778;2023-04-30T14:00:46;10.10;;;7.83;;
51292;SDS011;37377;45.186;9.778;2023-04-30T14:03:24;12.70;;;8.07;;
51292;SDS011;37377;45.186;9.778;2023-04-30T14:05:56;9.02;;;7.18;;
51292;SDS011;37377;45.186;9.778;2023-04-30T14:08:27;15.32;;;8.18;;
51292;SDS011;37377;45.186;9.778;2023-04-30T14:14:50;12.95;;;7.18;;
51292;SDS011;37377;45.186;9.778;2023-04-30T14:18:37;11.68;;;7.90;;
51292;SDS011;37377;45.186;9.778;2023-04-30T14:21:28;17.30;;;7.55;;
51292;SDS011;37377;45.186;9.778;2023-04-30T14:23:58;13.35;;;8.30;;
51292;SDS011;37377;45.186;9.778;2023-04-30T14:29:36;13.80;;;7.25;;
51292;SDS011;37377;45.186;9.778;2023-04-30T14:32:34;9.13;;;6.88;;
51292;SDS011;37377;45.186;9.778;2023-04-30T14:36:25;11.82;;;7.70;;
51292;SDS011;37377;45.186;9.778;2023-04-30T14:38:59;10.00;;;6.55;;
51292;SDS011;37377;45.186;9.778;2023-04-30T14:45:09;7.90;;;4.45;;
51292;SDS011;37377;45.186;9.778;2023-04-30T14:47:44;9.95;;;4.85;;
51292;SDS011;37377;45.186;9.778;2023-04-30T14:50:15;12.32;;;5.20;;
51292;SDS011;37377;45.186;9.778;2023-04-30T14:52:51;9.18;;;5.15;;
51292;SDS011;37377;45.186;9.778;2023-04-30T14:55:48;11.00;;;5.95;;
51292;SDS011;37377;45.186;9.778;2023-04-30T14:58:32;11.15;;;5.75;;
51292;SDS011;37377;45.186;9.778;2023-04-30T15:01:15;11.35;;;6.18;;
51292;SDS011;37377;45.186;9.778;2023-04-30T15:03:49;8.68;;;6.05;;
51292;SDS011;37377;45.186;9.778;2023-04-30T15:06:34;11.25;;;6.20;;
51292;SDS011;37377;45.186;9.778;2023-04-30T15:09:28;7.97;;;6.28;;
51292;SDS011;37377;45.186;9.778;2023-04-30T15:12:05;8.13;;;6.35;;
51292;SDS011;37377;45.186;9.778;2023-04-30T15:14:34;6.68;;;5.00;;
51292;SDS011;37377;45.186;9.778;2023-04-30T15:20:28;8.00;;;5.13;;
51292;SDS011;37377;45.186;9.778;2023-04-30T15:22:58;8.18;;;5.07;;
51292;SDS011;37377;45.186;9.778;2023-04-30T15:26:11;9.23;;;5.60;;
51292;SDS011;37377;45.186;9.778;2023-04-30T15:28:45;5.60;;;4.90;;
51292;SDS011;37377;45.186;9.778;2023-04-30T15:31:50;19.08;;;4.82;;
51292;SDS011;37377;45.186;9.778;2023-04-30T15:34:32;7.32;;;5.32;;
51292;SDS011;37377;45.186;9.778;2023-04-30T15:37:00;6.22;;;5.35;;
51292;SDS011;37377;45.186;9.778;2023-04-30T15:39:27;11.52;;;5.57;;
51292;SDS011;37377;45.186;9.778;2023-04-30T15:42:01;13.52;;;5.63;;
51292;SDS011;37377;45.186;9.778;2023-04-30T15:44:39;9.18;;;5.93;;
51292;SDS011;37377;45.186;9.778;2023-04-30T15:47:34;8.27;;;6.22;;
51292;SDS011;37377;45.186;9.778;2023-04-30T15:50:08;9.13;;;6.07;;
51292;SDS011;37377;45.186;9.778;2023-04-30T15:52:35;6.47;;;5.88;;
51292;SDS011;37377;45.186;9.778;2023-04-30T15:55:21;9.35;;;6.13;;
51292;SDS011;37377;45.186;9.778;2023-04-30T15:57:52;10.18;;;6.55;;
51292;SDS011;37377;45.186;9.778;2023-04-30T16:00:25;15.85;;;6.75;;
51292;SDS011;37377;45.186;9.778;2023-04-30T16:03:14;20.85;;;7.00;;
51292;SDS011;37377;45.186;9.778;2023-04-30T16:05:53;18.38;;;7.45;;
51292;SDS011;37377;45.186;9.778;2023-04-30T16:08:50;13.95;;;7.63;;
51292;SDS011;37377;45.186;9.778;2023-04-30T16:11:22;14.45;;;7.60;;
51292;SDS011;37377;45.186;9.778;2023-04-30T16:13:55;9.63;;;7.30;;
51292;SDS011;37377;45.186;9.778;2023-04-30T16:16:47;10.32;;;7.88;;
51292;SDS011;37377;45.186;9.778;2023-04-30T16:19:38;9.48;;;7.75;;
51292;SDS011;37377;45.186;9.778;2023-04-30T16:22:14;11.73;;;8.27;;
51292;SDS011;37377;45.186;9.778;2023-04-30T16:24:50;9.10;;;8.15;;
51292;SDS011;37377;45.186;9.778;2023-04-30T16:27:33;11.18;;;8.43;;
51292;SDS011;37377;45.186;9.778;2023-04-30T16:30:27;12.38;;;7.43;;
51292;SDS011;37377;45.186;9.778;2023-04-30T16:33:03;17.15;;;9.40;;
51292;SDS011;37377;45.186;9.778;2023-04-30T16:35:40;14.15;;;8.73;;
51292;SDS011;37377;45.186;9.778;2023-04-30T16:38:59;10.77;;;8.25;;
51292;SDS011;37377;45.186;9.778;2023-04-30T16:42:13;14.15;;;8.13;;
51292;SDS011;37377;45.186;9.778;2023-04-30T16:44:41;12.45;;;7.82;;
51292;SDS011;37377;45.186;9.778;2023-04-30T16:47:18;10.30;;;8.50;;
51292;SDS011;37377;45.186;9.778;2023-04-30T16:49:52;20.85;;;13.27;;
51292;SDS011;37377;45.186;9.778;2023-04-30T16:52:30;14.25;;;10.88;;
51292;SDS011;37377;45.186;9.778;2023-04-30T16:55:07;11.85;;;8.43;;
51292;SDS011;37377;45.186;9.778;2023-04-30T16:59:16;11.30;;;8.35;;
51292;SDS011;37377;45.186;9.778;2023-04-30T17:01:44;13.75;;;7.80;;
51292;SDS011;37377;45.186;9.778;2023-04-30T17:04:12;12.38;;;8.65;;
51292;SDS011;37377;45.186;9.778;2023-04-30T17:06:49;10.32;;;7.88;;
51292;SDS011;37377;45.186;9.778;2023-04-30T17:09:22;21.75;;;8.48;;
51292;SDS011;37377;45.186;9.778;2023-04-30T17:12:10;13.20;;;9.77;;
51292;SDS011;37377;45.186;9.778;2023-04-30T17:14:44;12.32;;;7.78;;
51292;SDS011;37377;45.186;9.778;2023-04-30T17:17:19;11.10;;;6.57;;
51292;SDS011;37377;45.186;9.778;2023-04-30T17:19:52;12.98;;;7.50;;
51292;SDS011;37377;45.186;9.778;2023-04-30T17:22:28;8.60;;;6.30;;
51292;SDS011;37377;45.186;9.778;2023-04-30T17:24:57;10.60;;;6.32;;
51292;SDS011;37377;45.186;9.778;2023-04-30T17:27:31;10.32;;;6.03;;
51292;SDS011;37377;45.186;9.778;2023-04-30T17:30:02;9.85;;;6.88;;
51292;SDS011;37377;45.186;9.778;2023-04-30T17:32:34;10.65;;;6.28;;
51292;SDS011;37377;45.186;9.778;2023-04-30T17:35:31;10.85;;;5.95;;
51292;SDS011;37377;45.186;9.778;2023-04-30T17:38:04;8.77;;;6.38;;
51292;SDS011;37377;45.186;9.778;2023-04-30T17:41:28;6.22;;;5.60;;
51292;SDS011;37377;45.186;9.778;2023-04-30T17:44:05;12.32;;;6.65;;
51292;SDS011;37377;45.186;9.778;2023-04-30T17:46:36;9.02;;;5.68;;
51292;SDS011;37377;45.186;9.778;2023-04-30T17:49:19;6.18;;;5.53;;
51292;SDS011;37377;45.186;9.778;2023-04-30T17:51:50;7.75;;;5.47;;
51292;SDS011;37377;45.186;9.778;2023-04-30T17:54:28;5.80;;;5.07;;
51292;SDS011;37377;45.186;9.778;2023-04-30T17:57:11;7.43;;;5.63;;
51292;SDS011;37377;45.186;9.778;2023-04-30T17:59:48;7.45;;;5.00;;
51292;SDS011;37377;45.186;9.778;2023-04-30T18:02:24;6.38;;;5.20;;
51292;SDS011;37377;45.186;9.778;2023-04-30T18:04:54;7.50;;;5.03;;
51292;SDS011;37377;45.186;9.778;2023-04-30T18:10:08;4.80;;;4.40;;
51292;SDS011;37377;45.186;9.778;2023-04-30T18:13:00;5.63;;;4.35;;
51292;SDS011;37377;45.186;9.778;2023-04-30T18:15:33;7.25;;;4.20;;
51292;SDS011;37377;45.186;9.778;2023-04-30T18:18:06;8.60;;;3.92;;
51292;SDS011;37377;45.186;9.778;2023-04-30T18:20:38;10.52;;;3.78;;
51292;SDS011;37377;45.186;9.778;2023-04-30T18:23:21;5.85;;;3.60;;
51292;SDS011;37377;45.186;9.778;2023-04-30T18:25:52;4.38;;;3.28;;
51292;SDS011;37377;45.186;9.778;2023-04-30T18:28:35;5.20;;;3.60;;
51292;SDS011;37377;45.186;9.778;2023-04-30T18:31:03;6.60;;;4.03;;
51292;SDS011;37377;45.186;9.778;2023-04-30T18:33:43;6.90;;;4.20;;
51292;SDS011;37377;45.186;9.778;2023-04-30T18:36:23;9.63;;;3.75;;
51292;SDS011;37377;45.186;9.778;2023-04-30T18:38:53;5.53;;;3.20;;
51292;SDS011;37377;45.186;9.778;2023-04-30T18:41:26;5.43;;;3.50;;
51292;SDS011;37377;45.186;9.778;2023-04-30T18:43:57;3.92;;;3.53;;
51292;SDS011;37377;45.186;9.778;2023-04-30T18:46:25;5.85;;;2.92;;
51292;SDS011;37377;45.186;9.778;2023-04-30T18:48:56;5.88;;;4.70;;
51292;SDS011;37377;45.186;9.778;2023-04-30T18:51:30;7.93;;;3.38;;
51292;SDS011;37377;45.186;9.778;2023-04-30T18:53:59;7.13;;;3.58;;
51292;SDS011;37377;45.186;9.778;2023-04-30T18:56:32;5.13;;;3.00;;
51292;SDS011;37377;45.186;9.778;2023-04-30T18:59:11;3.85;;;3.50;;
51292;SDS011;37377;45.186;9.778;2023-04-30T19:01:44;4.40;;;3.40;;
51292;SDS011;37377;45.186;9.778;2023-04-30T19:04:14;5.25;;;3.28;;
51292;SDS011;37377;45.186;9.778;2023-04-30T19:06:44;3.05;;;2.72;;